createdAt,value
2023-10-09T00:02:10.888Z,25.30
2023-10-09T00:04:43.261Z,25.40
2023-10-09T00:07:12.056Z,25.30
2023-10-09T00:09:48.143Z,25.30
2023-10-09T00:12:18.080Z,25.30
2023-10-09T00:14:49.221Z,25.30
2023-10-09T00:17:22.783Z,25.30
2023-10-09T00:19:55.660Z,25.30
2023-10-09T00:22:30.285Z,25.30
2023-10-09T00:25:12.512Z,25.30
2023-10-09T00:27:43.583Z,25.30
2023-10-09T00:30:16.649Z,25.30
2023-10-09T00:32:52.887Z,25.30
2023-10-09T00:35:47.926Z,25.30
2023-10-09T00:38:24.895Z,25.30
2023-10-09T00:41:06.186Z,25.30
2023-10-09T00:43:36.555Z,25.30
2023-10-09T00:46:09.639Z,25.30
2023-10-09T00:48:41.233Z,25.30
2023-10-09T00:51:19.380Z,25.30
2023-10-09T00:53:51.594Z,25.30
2023-10-09T00:56:22.405Z,25.30
2023-10-09T00:58:56.719Z,25.30
2023-10-09T01:01:29.027Z,25.30
2023-10-09T01:03:57.812Z,25.30
2023-10-09T01:06:29.519Z,25.30
2023-10-09T01:09:09.893Z,25.30
2023-10-09T01:11:48.419Z,25.30
2023-10-09T01:14:17.081Z,25.30
2023-10-09T01:16:45.299Z,25.30
2023-10-09T01:19:21.179Z,25.30
2023-10-09T01:21:51.192Z,25.30
2023-10-09T01:24:21.843Z,25.30
2023-10-09T01:26:50.674Z,25.30
2023-10-09T01:29:20.702Z,25.30
2023-10-09T01:31:55.860Z,25.30
2023-10-09T01:34:39.836Z,25.30
2023-10-09T01:37:12.876Z,25.30
2023-10-09T01:39:42.903Z,25.30
2023-10-09T01:42:11.730Z,25.30
2023-10-09T01:44:44.383Z,25.30
2023-10-09T01:47:19.467Z,25.30
2023-10-09T01:49:50.507Z,25.30
2023-10-09T01:52:19.130Z,25.30
2023-10-09T01:54:52.486Z,25.30
2023-10-09T01:57:24.361Z,25.30
2023-10-09T01:59:54.688Z,25.30
2023-10-09T02:02:34.436Z,25.30
2023-10-09T02:05:24.423Z,25.30
2023-10-09T02:07:53.295Z,25.30
2023-10-09T02:10:32.417Z,25.30
2023-10-09T02:13:07.154Z,25.30
2023-10-09T02:15:54.530Z,25.30
2023-10-09T02:18:41.266Z,25.30
2023-10-09T02:21:16.180Z,25.30
2023-10-09T02:23:50.468Z,25.30
2023-10-09T02:26:27.198Z,25.30
2023-10-09T02:29:01.191Z,25.30
2023-10-09T02:31:36.972Z,25.30
2023-10-09T02:34:07.032Z,25.30
2023-10-09T02:36:39.419Z,25.30
2023-10-09T02:39:08.824Z,25.30
2023-10-09T02:41:50.406Z,25.30
2023-10-09T02:44:25.842Z,25.30
2023-10-09T02:46:58.587Z,25.20
2023-10-09T02:49:27.385Z,25.30
2023-10-09T02:51:55.303Z,25.30
2023-10-09T02:54:36.654Z,25.30
2023-10-09T02:57:08.134Z,25.30
2023-10-09T02:59:38.169Z,25.30
2023-10-09T03:02:06.027Z,25.20
2023-10-09T03:04:33.897Z,25.20
2023-10-09T03:07:02.363Z,25.20
2023-10-09T03:09:33.183Z,25.20
2023-10-09T03:12:04.386Z,25.30
2023-10-09T03:14:36.468Z,25.20
2023-10-09T03:17:05.036Z,25.30
2023-10-09T03:19:38.284Z,25.20
2023-10-09T03:22:10.220Z,25.30
2023-10-09T03:24:40.044Z,25.30
2023-10-09T03:27:07.917Z,25.30
2023-10-09T03:29:38.161Z,25.30
2023-10-09T03:32:07.435Z,25.30
2023-10-09T03:34:35.240Z,25.30
2023-10-09T03:37:12.365Z,25.30
2023-10-09T03:39:42.199Z,25.30
2023-10-09T03:42:19.971Z,25.20
2023-10-09T03:44:53.920Z,25.20
2023-10-09T03:47:23.994Z,25.20
2023-10-09T03:49:54.694Z,25.20
2023-10-09T03:52:26.688Z,25.30
2023-10-09T03:54:55.720Z,25.30
2023-10-09T03:57:24.808Z,25.20
2023-10-09T03:59:54.710Z,25.20
2023-10-09T04:02:23.949Z,25.20
2023-10-09T04:04:52.947Z,25.20
2023-10-09T04:07:22.372Z,25.20
2023-10-09T04:09:55.287Z,25.20
2023-10-09T04:12:26.118Z,25.20
2023-10-09T04:15:02.076Z,25.20
2023-10-09T04:17:36.782Z,25.20
2023-10-09T04:20:31.758Z,25.20
2023-10-09T04:23:06.097Z,25.20
2023-10-09T04:25:42.966Z,25.20
2023-10-09T04:28:20.133Z,25.20
2023-10-09T04:30:54.462Z,25.20
2023-10-09T04:33:36.234Z,25.20
2023-10-09T04:36:22.775Z,25.20
2023-10-09T04:39:16.686Z,25.20
2023-10-09T04:41:54.941Z,25.20
2023-10-09T04:44:24.087Z,25.20
2023-10-09T04:47:07.905Z,25.20
2023-10-09T04:49:50.665Z,25.20
2023-10-09T04:52:41.266Z,25.20
2023-10-09T04:55:18.693Z,25.20
2023-10-09T04:58:02.593Z,25.20
2023-10-09T05:01:03.053Z,25.20
2023-10-09T05:03:43.916Z,25.20
2023-10-09T05:06:43.751Z,25.20
2023-10-09T05:09:15.520Z,25.20
2023-10-09T05:11:55.177Z,25.20
2023-10-09T05:14:28.611Z,25.20
2023-10-09T05:16:56.859Z,25.20
2023-10-09T05:19:42.897Z,25.20
2023-10-09T05:22:30.363Z,25.20
2023-10-09T05:25:00.350Z,25.20
2023-10-09T05:27:42.175Z,25.30
2023-10-09T05:30:26.583Z,25.20
2023-10-09T05:32:59.396Z,25.30
2023-10-09T05:35:48.728Z,25.20
2023-10-09T05:38:25.998Z,25.30
2023-10-09T05:41:16.068Z,25.20
2023-10-09T05:44:01.476Z,25.20
2023-10-09T05:46:36.563Z,25.20
2023-10-09T05:49:10.545Z,25.20
2023-10-09T05:51:47.572Z,25.20
2023-10-09T05:54:32.073Z,25.20
2023-10-09T05:57:31.372Z,25.20
2023-10-09T06:00:17.582Z,25.20
2023-10-09T06:03:03.236Z,25.20
2023-10-09T06:05:52.043Z,25.10
2023-10-09T06:08:28.159Z,25.00
2023-10-09T06:11:07.607Z,24.90
2023-10-09T06:13:46.801Z,24.90
2023-10-09T06:16:36.118Z,24.90
2023-10-09T06:19:14.510Z,24.90
2023-10-09T06:22:08.740Z,24.90
2023-10-09T06:24:42.844Z,24.90
2023-10-09T06:27:14.394Z,24.90
2023-10-09T06:30:15.378Z,24.90
2023-10-09T06:32:51.892Z,24.90
2023-10-09T06:35:20.083Z,24.90
2023-10-09T06:38:07.217Z,24.90
2023-10-09T06:40:54.996Z,24.90
2023-10-09T06:43:28.753Z,24.90
2023-10-09T06:45:59.329Z,25.00
2023-10-09T06:48:45.097Z,25.00
2023-10-09T06:51:37.857Z,25.00
2023-10-09T06:54:07.916Z,25.00
2023-10-09T06:56:54.679Z,25.00
2023-10-09T06:59:25.208Z,25.00
2023-10-09T07:02:07.840Z,25.00
2023-10-09T07:04:56.113Z,25.00
2023-10-09T07:07:25.635Z,25.00
2023-10-09T07:10:12.259Z,25.00
2023-10-09T07:12:45.313Z,25.00
2023-10-09T07:15:31.897Z,25.00
2023-10-09T07:18:19.801Z,25.10
2023-10-09T07:20:59.975Z,25.10
2023-10-09T07:23:33.732Z,25.00
2023-10-09T07:26:20.001Z,25.10
2023-10-09T07:29:02.308Z,25.10
2023-10-09T07:31:40.548Z,25.10
2023-10-09T07:34:30.329Z,25.10
2023-10-09T07:36:58.462Z,25.10
2023-10-09T07:39:35.266Z,25.10
2023-10-09T07:42:20.393Z,25.10
2023-10-09T07:44:55.174Z,25.10
2023-10-09T07:47:34.221Z,25.10
2023-10-09T07:50:04.912Z,25.10
2023-10-09T07:52:32.880Z,25.10
2023-10-09T07:55:15.637Z,25.10
2023-10-09T07:57:53.039Z,25.10
2023-10-09T08:01:07.390Z,25.20
2023-10-09T08:03:36.662Z,25.20
2023-10-09T08:06:24.824Z,25.20
2023-10-09T08:09:21.094Z,25.20
2023-10-09T08:12:20.855Z,25.20
2023-10-09T08:14:49.823Z,25.20
2023-10-09T08:17:21.734Z,25.20
2023-10-09T08:19:59.004Z,25.20
2023-10-09T08:22:51.213Z,25.20
2023-10-09T08:25:28.808Z,25.20
2023-10-09T08:27:58.129Z,25.20
2023-10-09T08:30:42.190Z,25.20
2023-10-09T08:36:15.864Z,25.20
2023-10-09T08:38:43.915Z,25.30
2023-10-09T08:41:19.646Z,25.20
2023-10-09T08:43:53.622Z,25.20
2023-10-09T08:46:22.983Z,25.20
2023-10-09T08:48:52.614Z,25.20
2023-10-09T08:51:21.024Z,25.30
2023-10-09T08:53:49.233Z,25.30
2023-10-09T08:56:23.225Z,25.20
2023-10-09T08:58:53.296Z,25.20
2023-10-09T09:01:23.644Z,25.20
2023-10-09T09:03:56.490Z,25.20
2023-10-09T09:06:25.282Z,25.20
2023-10-09T09:09:00.412Z,25.20
2023-10-09T09:11:31.686Z,25.20
2023-10-09T09:14:06.580Z,25.10
2023-10-09T09:16:37.657Z,25.00
2023-10-09T09:19:18.653Z,25.00
2023-10-09T09:21:55.201Z,24.90
2023-10-09T09:24:31.906Z,24.80
2023-10-09T09:27:13.739Z,24.80
2023-10-09T09:29:43.682Z,24.90
2023-10-09T09:32:19.508Z,24.90
2023-10-09T09:34:50.735Z,24.90
2023-10-09T09:37:23.087Z,24.90
2023-10-09T09:39:55.963Z,25.00
2023-10-09T09:42:28.089Z,25.00
2023-10-09T09:44:58.306Z,25.00
2023-10-09T09:47:28.018Z,25.00
2023-10-09T09:50:01.807Z,25.00
2023-10-09T09:52:39.427Z,25.00
2023-10-09T09:55:15.494Z,25.00
2023-10-09T09:57:46.634Z,25.10
2023-10-09T10:00:29.847Z,25.10
2023-10-09T10:03:01.650Z,25.10
2023-10-09T10:05:32.791Z,25.10
2023-10-09T10:08:01.850Z,25.10
2023-10-09T10:10:38.491Z,25.10
2023-10-09T10:13:06.383Z,25.20
2023-10-09T10:15:59.717Z,25.10
2023-10-09T10:18:33.258Z,25.20
2023-10-09T10:21:17.005Z,25.20
2023-10-09T10:23:48.420Z,25.20
2023-10-09T10:26:26.658Z,25.20
2023-10-09T10:29:23.728Z,25.20
2023-10-09T10:32:01.632Z,25.20
2023-10-09T10:34:58.668Z,25.30
2023-10-09T10:37:45.332Z,25.30
2023-10-09T10:40:35.260Z,25.30
2023-10-09T10:43:10.620Z,25.30
2023-10-09T10:45:44.536Z,25.30
2023-10-09T10:48:24.283Z,25.30
2023-10-09T10:50:59.117Z,25.30
2023-10-09T10:53:36.077Z,25.40
2023-10-09T10:56:18.915Z,25.40
2023-10-09T10:59:13.210Z,25.50
2023-10-09T11:01:54.682Z,25.50
2023-10-09T11:04:39.965Z,25.50
2023-10-09T11:07:13.589Z,25.50
2023-10-09T11:10:09.374Z,25.60
2023-10-09T11:13:07.370Z,25.60
2023-10-09T11:15:57.374Z,25.60
2023-10-09T11:18:28.537Z,25.70
2023-10-09T11:21:15.251Z,25.80
2023-10-09T11:23:54.477Z,25.90
2023-10-09T11:26:26.814Z,26.00
2023-10-09T11:29:15.699Z,26.10
2023-10-09T11:31:46.844Z,26.10
2023-10-09T11:34:30.012Z,26.10
2023-10-09T11:36:59.187Z,26.20
2023-10-09T11:39:35.212Z,26.20
2023-10-09T11:42:08.647Z,26.20
2023-10-09T11:44:40.174Z,26.20
2023-10-09T11:47:26.400Z,26.20
2023-10-09T11:50:12.888Z,26.20
2023-10-09T11:53:09.996Z,26.10
2023-10-09T11:55:38.816Z,26.10
2023-10-09T11:58:09.932Z,26.00
2023-10-09T12:00:46.998Z,25.90
2023-10-09T12:03:15.608Z,25.90
2023-10-09T12:05:46.112Z,25.90
2023-10-09T12:08:16.429Z,25.80
2023-10-09T12:10:45.118Z,25.80
2023-10-09T12:13:16.642Z,25.80
2023-10-09T12:15:47.656Z,25.80
2023-10-09T12:18:16.887Z,25.80
2023-10-09T12:20:50.986Z,25.80
2023-10-09T12:23:19.589Z,25.80
2023-10-09T12:25:47.961Z,25.80
2023-10-09T12:28:21.650Z,25.80
2023-10-09T12:30:51.480Z,25.80
2023-10-09T12:33:20.776Z,25.80
2023-10-09T12:35:49.097Z,25.80
2023-10-09T12:38:20.047Z,25.80
2023-10-09T12:40:52.633Z,25.80
2023-10-09T12:43:23.091Z,25.80
2023-10-09T12:45:50.941Z,25.80
2023-10-09T12:48:19.065Z,25.80
2023-10-09T12:50:46.887Z,25.80
2023-10-09T12:53:18.824Z,25.80
2023-10-09T12:55:46.785Z,25.80
2023-10-09T12:58:16.708Z,25.80
2023-10-09T13:00:49.832Z,25.70
2023-10-09T13:03:23.015Z,25.70
2023-10-09T13:05:56.754Z,25.70
2023-10-09T13:08:32.362Z,25.80
2023-10-09T13:11:11.683Z,25.80
2023-10-09T13:13:44.100Z,25.70
2023-10-09T13:16:21.852Z,25.80
2023-10-09T13:18:51.721Z,25.70
2023-10-09T13:21:20.498Z,25.80
2023-10-09T13:23:52.194Z,25.80
2023-10-09T13:26:32.284Z,25.80
2023-10-09T13:29:02.656Z,25.80
2023-10-09T13:31:35.314Z,25.80
2023-10-09T13:34:04.913Z,25.70
2023-10-09T13:36:33.672Z,25.80
2023-10-09T13:39:20.954Z,25.70
2023-10-09T13:41:49.347Z,25.80
2023-10-09T13:44:17.659Z,25.80
2023-10-09T13:46:51.182Z,25.80
2023-10-09T13:49:19.100Z,25.80
2023-10-09T13:51:46.889Z,25.70
2023-10-09T13:54:21.924Z,25.80
2023-10-09T13:56:53.819Z,25.70
2023-10-09T13:59:23.698Z,25.70
2023-10-09T14:01:55.896Z,25.80
2023-10-09T14:04:24.309Z,25.80
2023-10-09T14:06:57.841Z,25.80
2023-10-09T14:09:33.178Z,25.80
2023-10-09T14:12:08.178Z,25.80
2023-10-09T14:14:39.223Z,25.80
2023-10-09T14:17:13.021Z,25.80
2023-10-09T14:19:41.791Z,25.80
2023-10-09T14:22:09.639Z,25.80
2023-10-09T14:24:39.586Z,25.80
2023-10-09T14:27:11.978Z,25.80
2023-10-09T14:29:39.832Z,25.80
2023-10-09T14:32:14.085Z,25.80
2023-10-09T14:34:47.078Z,25.90
2023-10-09T14:37:16.193Z,25.90
2023-10-09T14:39:49.256Z,25.90
2023-10-09T14:42:17.566Z,25.90
2023-10-09T14:44:47.017Z,25.90
2023-10-09T14:47:16.300Z,25.90
2023-10-09T14:49:47.386Z,25.90
2023-10-09T14:52:20.439Z,25.90
2023-10-09T14:54:51.477Z,25.90
2023-10-09T14:57:19.428Z,25.80
2023-10-09T14:59:47.620Z,25.80
2023-10-09T15:02:18.028Z,25.80
2023-10-09T15:04:45.970Z,25.80
2023-10-09T15:07:26.536Z,25.80
2023-10-09T15:10:06.147Z,25.80
2023-10-09T15:12:40.016Z,25.80
2023-10-09T15:15:12.692Z,25.80
2023-10-09T15:17:44.855Z,25.80
2023-10-09T15:20:15.483Z,25.80
2023-10-09T15:22:43.888Z,25.80
2023-10-09T15:25:15.331Z,25.80
2023-10-09T15:27:44.707Z,25.80
2023-10-09T15:30:15.770Z,25.80
2023-10-09T15:32:45.374Z,25.70
2023-10-09T15:35:14.749Z,25.70
2023-10-09T15:37:43.354Z,25.70
2023-10-09T15:40:15.038Z,25.70
2023-10-09T15:42:42.872Z,25.70
2023-10-09T15:45:12.947Z,25.70
2023-10-09T15:47:41.036Z,25.70
2023-10-09T15:50:12.976Z,25.70
2023-10-09T15:52:41.203Z,25.70
2023-10-09T15:55:14.232Z,25.70
2023-10-09T15:57:42.550Z,25.70
2023-10-09T16:00:14.855Z,25.70
2023-10-09T16:02:44.228Z,25.70
2023-10-09T16:05:14.329Z,25.70
2023-10-09T16:07:42.492Z,25.70
2023-10-09T16:10:12.194Z,25.70
2023-10-09T16:12:41.807Z,25.70
2023-10-09T16:15:11.292Z,25.70
2023-10-09T16:17:40.864Z,25.70
2023-10-09T16:20:15.015Z,25.70
2023-10-09T16:22:46.714Z,25.70
2023-10-09T16:25:14.595Z,25.70
2023-10-09T16:27:47.625Z,25.70
2023-10-09T16:30:19.556Z,25.70
2023-10-09T16:32:47.842Z,25.60
2023-10-09T16:35:16.044Z,25.60
2023-10-09T16:37:45.516Z,25.70
2023-10-09T16:40:14.173Z,25.70
2023-10-09T16:42:43.346Z,25.60
2023-10-09T16:45:16.741Z,25.60
2023-10-09T16:47:46.568Z,25.60
2023-10-09T16:50:16.592Z,25.70
2023-10-09T16:52:46.556Z,25.60
2023-10-09T16:55:15.978Z,25.70
2023-10-09T16:57:44.767Z,25.70
2023-10-09T17:00:29.426Z,25.70
2023-10-09T17:02:58.137Z,25.70
2023-10-09T17:05:33.708Z,25.70
2023-10-09T17:08:02.993Z,25.70
2023-10-09T17:10:36.030Z,25.70
2023-10-09T17:13:05.096Z,25.70
2023-10-09T17:15:36.629Z,25.70
2023-10-09T17:18:07.874Z,25.70
2023-10-09T17:20:41.806Z,25.60
2023-10-09T17:23:12.225Z,25.60
2023-10-09T17:25:45.389Z,25.70
2023-10-09T17:28:18.237Z,25.60
2023-10-09T17:30:49.652Z,25.60
2023-10-09T17:33:20.296Z,25.60
2023-10-09T17:35:48.480Z,25.60
2023-10-09T17:38:19.343Z,25.60
2023-10-09T17:40:52.237Z,25.60
2023-10-09T17:43:21.041Z,25.60
2023-10-09T17:45:50.939Z,25.60
2023-10-09T17:48:19.380Z,25.60
2023-10-09T17:50:47.760Z,25.60
2023-10-09T17:53:18.947Z,25.60
2023-10-09T17:55:48.346Z,25.60
2023-10-09T17:58:16.284Z,25.60
2023-10-09T18:00:45.117Z,25.60
2023-10-09T18:03:15.906Z,25.60
2023-10-09T18:05:45.855Z,25.60
2023-10-09T18:08:15.689Z,25.60
2023-10-09T18:10:45.366Z,25.60
2023-10-09T18:13:18.055Z,25.60
2023-10-09T18:15:46.054Z,25.60
2023-10-09T18:18:20.748Z,25.60
2023-10-09T18:20:50.179Z,25.60
2023-10-09T18:23:19.349Z,25.60
2023-10-09T18:25:50.874Z,25.60
2023-10-09T18:28:19.262Z,25.60
2023-10-09T18:30:50.247Z,25.60
2023-10-09T18:33:18.177Z,25.60
2023-10-09T18:35:46.065Z,25.60
2023-10-09T18:38:17.187Z,25.60
2023-10-09T18:40:48.079Z,25.60
2023-10-09T18:43:18.224Z,25.60
2023-10-09T18:45:46.089Z,25.60
2023-10-09T18:48:18.870Z,25.60
2023-10-09T18:50:46.889Z,25.50
2023-10-09T18:53:14.816Z,25.50
2023-10-09T18:55:42.709Z,25.60
2023-10-09T18:58:10.877Z,25.60
2023-10-09T19:00:50.100Z,25.60
2023-10-09T19:03:21.717Z,25.60
2023-10-09T19:05:49.607Z,25.50
2023-10-09T19:08:19.362Z,25.60
2023-10-09T19:10:47.363Z,25.50
2023-10-09T19:13:15.272Z,25.50
2023-10-09T19:15:52.000Z,25.60
2023-10-09T19:18:20.394Z,25.50
2023-10-09T19:20:48.625Z,25.50
2023-10-09T19:23:16.483Z,25.60
2023-10-09T19:25:44.414Z,25.50
2023-10-09T19:28:13.264Z,25.50
2023-10-09T19:30:41.119Z,25.50
2023-10-09T19:33:10.327Z,25.50
2023-10-09T19:35:41.400Z,25.50
2023-10-09T19:38:11.678Z,25.60
2023-10-09T19:40:39.612Z,25.50
2023-10-09T19:43:07.374Z,25.50
2023-10-09T19:45:35.126Z,25.50
2023-10-09T19:48:03.288Z,25.50
2023-10-09T19:50:32.488Z,25.50
2023-10-09T19:53:02.440Z,25.50
2023-10-09T19:55:30.322Z,25.50
2023-10-09T19:57:58.068Z,25.50
2023-10-09T20:00:25.858Z,25.50
2023-10-09T20:02:55.386Z,25.50
2023-10-09T20:05:23.927Z,25.50
2023-10-09T20:07:53.934Z,25.50
2023-10-09T20:10:21.784Z,25.50
2023-10-09T20:12:49.592Z,25.50
2023-10-09T20:15:22.242Z,25.50
2023-10-09T20:17:50.183Z,25.50
2023-10-09T20:20:23.537Z,25.50
2023-10-09T20:22:54.047Z,25.50
2023-10-09T20:25:23.749Z,25.50
2023-10-09T20:27:51.717Z,25.50
2023-10-09T20:30:19.516Z,25.50
2023-10-09T20:32:47.322Z,25.50
2023-10-09T20:35:16.399Z,25.50
2023-10-09T20:37:45.938Z,25.50
2023-10-09T20:40:18.870Z,25.50
2023-10-09T20:42:48.442Z,25.50
2023-10-09T20:45:16.569Z,25.50
2023-10-09T20:47:47.871Z,25.50
2023-10-09T20:50:16.669Z,25.50
2023-10-09T20:52:48.117Z,25.50
2023-10-09T20:55:20.934Z,25.50
2023-10-09T20:57:48.832Z,25.40
2023-10-09T21:00:21.620Z,25.40
2023-10-09T21:02:49.956Z,25.50
2023-10-09T21:05:18.059Z,25.40
2023-10-09T21:07:47.295Z,25.50
2023-10-09T21:10:18.472Z,25.50
2023-10-09T21:12:49.832Z,25.50
2023-10-09T21:15:19.234Z,25.50
2023-10-09T21:17:47.278Z,25.40
2023-10-09T21:20:18.144Z,25.50
2023-10-09T21:22:47.626Z,25.40
2023-10-09T21:25:21.251Z,25.40
2023-10-09T21:27:49.422Z,25.40
2023-10-09T21:30:17.634Z,25.40
2023-10-09T21:32:46.028Z,25.40
2023-10-09T21:35:18.158Z,25.40
2023-10-09T21:37:47.038Z,25.40
2023-10-09T21:40:15.321Z,25.40
2023-10-09T21:42:46.668Z,25.40
2023-10-09T21:45:14.568Z,25.40
2023-10-09T21:47:42.475Z,25.40
2023-10-09T21:50:10.957Z,25.40
2023-10-09T21:52:39.563Z,25.40
2023-10-09T21:55:09.195Z,25.40
2023-10-09T21:57:38.491Z,25.40
2023-10-09T22:00:15.786Z,25.40
2023-10-09T22:02:45.095Z,25.40
2023-10-09T22:05:13.030Z,25.40
2023-10-09T22:07:43.221Z,25.40
2023-10-09T22:10:16.097Z,25.40
2023-10-09T22:12:44.338Z,25.40
2023-10-09T22:15:15.193Z,25.40
2023-10-09T22:17:44.934Z,25.40
2023-10-09T22:20:19.851Z,25.40
2023-10-09T22:22:48.713Z,25.40
2023-10-09T22:25:18.053Z,25.40
2023-10-09T22:27:52.627Z,25.40
2023-10-09T22:30:30.144Z,25.40
2023-10-09T22:33:03.564Z,25.30
2023-10-09T22:35:33.560Z,25.40
2023-10-09T22:38:09.099Z,25.40
2023-10-09T22:40:39.685Z,25.40
2023-10-09T22:43:09.601Z,25.40
2023-10-09T22:45:43.666Z,25.40
2023-10-09T22:48:15.231Z,25.30
2023-10-09T22:50:46.256Z,25.40
2023-10-09T22:53:22.831Z,25.40
2023-10-09T22:55:53.342Z,25.30
2023-10-09T22:58:26.525Z,25.30
2023-10-09T23:00:59.661Z,25.30
2023-10-09T23:03:28.222Z,25.40
2023-10-09T23:05:58.822Z,25.40
2023-10-09T23:08:27.651Z,25.30
2023-10-09T23:11:09.329Z,25.30
2023-10-09T23:13:39.545Z,25.40
2023-10-09T23:16:09.497Z,25.40
2023-10-09T23:18:45.164Z,25.40
2023-10-09T23:21:23.521Z,25.30
2023-10-09T23:23:51.703Z,25.30
2023-10-09T23:26:30.240Z,25.30
2023-10-09T23:29:09.590Z,25.40
2023-10-09T23:31:48.121Z,25.40
2023-10-09T23:34:20.888Z,25.30
2023-10-09T23:36:56.121Z,25.30
2023-10-09T23:42:26.386Z,25.30
2023-10-09T23:44:57.161Z,25.30
2023-10-09T23:47:32.824Z,25.30
2023-10-09T23:50:00.900Z,25.30
2023-10-09T23:52:30.232Z,25.40
2023-10-09T23:55:04.424Z,25.40
2023-10-09T23:57:43.145Z,25.40
